sensor_id;sensor_type;location;lat;lon;timestamp;temperature;humidity
5711;DHT22;61291;52.524;13.422;2023-09-19T00:01:39;16.90;99.90
5711;DHT22;61291;52.524;13.422;2023-09-19T00:04:05;16.90;99.90
5711;DHT22;61291;52.524;13.422;2023-09-19T00:06:36;16.90;99.90
5711;DHT22;61291;52.524;13.422;2023-09-19T00:09:02;16.80;99.90
5711;DHT22;61291;52.524;13.422;2023-09-19T00:11:28;16.80;99.90
5711;DHT22;61291;52.524;13.422;2023-09-19T00:13:54;16.70;99.90
5711;DHT22;61291;52.524;13.422;2023-09-19T00:16:20;16.70;99.90
5711;DHT22;61291;52.524;13.422;2023-09-19T00:18:45;16.70;99.90
5711;DHT22;61291;52.524;13.422;2023-09-19T00:21:11;16.70;99.90
5711;DHT22;61291;52.524;13.422;2023-09-19T00:23:37;16.70;99.90
5711;DHT22;61291;52.524;13.422;2023-09-19T00:26:03;16.70;99.90
5711;DHT22;61291;52.524;13.422;2023-09-19T00:28:29;16.60;99.90
5711;DHT22;61291;52.524;13.422;2023-09-19T00:30:55;16.60;99.90
5711;DHT22;61291;52.524;13.422;2023-09-19T00:33:21;16.60;99.90
5711;DHT22;61291;52.524;13.422;2023-09-19T00:35:48;16.60;99.90
5711;DHT22;61291;52.524;13.422;2023-09-19T00:38:14;16.60;99.90
5711;DHT22;61291;52.524;13.422;2023-09-19T00:40:45;16.70;99.90
5711;DHT22;61291;52.524;13.422;2023-09-19T00:43:11;16.70;99.90
5711;DHT22;61291;52.524;13.422;2023-09-19T00:45:37;16.60;99.90
5711;DHT22;61291;52.524;13.422;2023-09-19T00:48:07;16.50;99.90
5711;DHT22;61291;52.524;13.422;2023-09-19T00:50:35;16.50;99.90
5711;DHT22;61291;52.524;13.422;2023-09-19T00:53:01;16.40;99.90
5711;DHT22;61291;52.524;13.422;2023-09-19T00:55:31;16.40;99.90
5711;DHT22;61291;52.524;13.422;2023-09-19T00:57:58;16.40;99.90
5711;DHT22;61291;52.524;13.422;2023-09-19T01:00:24;16.40;99.90
5711;DHT22;61291;52.524;13.422;2023-09-19T01:02:50;16.40;99.90
5711;DHT22;61291;52.524;13.422;2023-09-19T01:05:15;16.40;99.90
5711;DHT22;61291;52.524;13.422;2023-09-19T01:07:42;16.40;99.90
5711;DHT22;61291;52.524;13.422;2023-09-19T01:10:13;16.40;99.90
5711;DHT22;61291;52.524;13.422;2023-09-19T01:20:50;16.40;99.90
5711;DHT22;61291;52.524;13.422;2023-09-19T01:23:40;16.40;99.90
5711;DHT22;61291;52.524;13.422;2023-09-19T01:29:39;16.30;99.90
5711;DHT22;61291;52.524;13.422;2023-09-19T01:32:11;16.40;99.90
5711;DHT22;61291;52.524;13.422;2023-09-19T01:34:47;16.60;99.90
5711;DHT22;61291;52.524;13.422;2023-09-19T01:37:13;16.80;99.90
5711;DHT22;61291;52.524;13.422;2023-09-19T01:39:40;16.90;99.90
5711;DHT22;61291;52.524;13.422;2023-09-19T01:42:18;16.90;99.90
5711;DHT22;61291;52.524;13.422;2023-09-19T01:44:57;17.00;99.90
5711;DHT22;61291;52.524;13.422;2023-09-19T01:47:32;17.10;99.90
5711;DHT22;61291;52.524;13.422;2023-09-19T01:50:13;17.10;99.90
5711;DHT22;61291;52.524;13.422;2023-09-19T01:52:49;17.20;99.90
5711;DHT22;61291;52.524;13.422;2023-09-19T01:55:17;17.20;99.90
5711;DHT22;61291;52.524;13.422;2023-09-19T01:58:04;17.10;99.90
5711;DHT22;61291;52.524;13.422;2023-09-19T02:00:34;17.10;99.90
5711;DHT22;61291;52.524;13.422;2023-09-19T02:03:01;16.90;99.90
5711;DHT22;61291;52.524;13.422;2023-09-19T02:05:27;16.80;99.90
5711;DHT22;61291;52.524;13.422;2023-09-19T02:07:53;16.70;99.90
5711;DHT22;61291;52.524;13.422;2023-09-19T02:10:19;16.70;99.90
5711;DHT22;61291;52.524;13.422;2023-09-19T02:12:45;16.60;99.90
5711;DHT22;61291;52.524;13.422;2023-09-19T02:15:10;16.50;99.90
5711;DHT22;61291;52.524;13.422;2023-09-19T02:17:36;16.50;99.90
5711;DHT22;61291;52.524;13.422;2023-09-19T02:20:01;16.40;99.90
5711;DHT22;61291;52.524;13.422;2023-09-19T02:22:29;16.40;99.90
5711;DHT22;61291;52.524;13.422;2023-09-19T02:24:54;16.30;99.90
5711;DHT22;61291;52.524;13.422;2023-09-19T02:27:23;16.30;99.90
5711;DHT22;61291;52.524;13.422;2023-09-19T02:29:49;16.20;99.90
5711;DHT22;61291;52.524;13.422;2023-09-19T02:32:14;16.30;99.90
5711;DHT22;61291;52.524;13.422;2023-09-19T02:34:40;16.20;99.90
5711;DHT22;61291;52.524;13.422;2023-09-19T02:37:07;16.20;99.90
5711;DHT22;61291;52.524;13.422;2023-09-19T02:39:34;16.20;99.90
5711;DHT22;61291;52.524;13.422;2023-09-19T02:41:59;16.10;99.90
5711;DHT22;61291;52.524;13.422;2023-09-19T02:44:25;16.10;99.90
5711;DHT22;61291;52.524;13.422;2023-09-19T02:46:50;16.10;99.90
5711;DHT22;61291;52.524;13.422;2023-09-19T02:49:16;16.10;99.90
5711;DHT22;61291;52.524;13.422;2023-09-19T02:51:43;16.00;99.90
5711;DHT22;61291;52.524;13.422;2023-09-19T02:54:09;16.00;99.90
5711;DHT22;61291;52.524;13.422;2023-09-19T02:56:35;16.00;99.90
5711;DHT22;61291;52.524;13.422;2023-09-19T02:59:01;16.00;99.90
5711;DHT22;61291;52.524;13.422;2023-09-19T03:01:27;16.10;99.90
5711;DHT22;61291;52.524;13.422;2023-09-19T03:03:53;16.10;99.90
5711;DHT22;61291;52.524;13.422;2023-09-19T03:06:19;16.10;99.90
5711;DHT22;61291;52.524;13.422;2023-09-19T03:08:45;16.20;99.90
5711;DHT22;61291;52.524;13.422;2023-09-19T03:11:12;16.20;99.90
5711;DHT22;61291;52.524;13.422;2023-09-19T03:13:40;16.20;99.90
5711;DHT22;61291;52.524;13.422;2023-09-19T03:16:07;16.20;99.90
5711;DHT22;61291;52.524;13.422;2023-09-19T03:18:34;16.20;99.90
5711;DHT22;61291;52.524;13.422;2023-09-19T03:21:00;16.20;99.90
5711;DHT22;61291;52.524;13.422;2023-09-19T03:23:26;16.10;99.90
5711;DHT22;61291;52.524;13.422;2023-09-19T03:25:52;16.10;99.90
5711;DHT22;61291;52.524;13.422;2023-09-19T03:28:17;16.10;99.90
5711;DHT22;61291;52.524;13.422;2023-09-19T03:30:43;16.10;99.90
5711;DHT22;61291;52.524;13.422;2023-09-19T03:33:09;16.10;99.90
5711;DHT22;61291;52.524;13.422;2023-09-19T03:35:37;16.10;99.90
5711;DHT22;61291;52.524;13.422;2023-09-19T03:38:03;16.20;99.90
5711;DHT22;61291;52.524;13.422;2023-09-19T03:40:30;16.20;99.90
5711;DHT22;61291;52.524;13.422;2023-09-19T03:42:55;16.30;99.90
5711;DHT22;61291;52.524;13.422;2023-09-19T03:45:21;16.30;99.90
5711;DHT22;61291;52.524;13.422;2023-09-19T03:47:46;16.30;99.90
5711;DHT22;61291;52.524;13.422;2023-09-19T03:50:15;16.40;99.90
5711;DHT22;61291;52.524;13.422;2023-09-19T03:52:45;16.50;99.90
5711;DHT22;61291;52.524;13.422;2023-09-19T03:55:11;16.50;99.90
5711;DHT22;61291;52.524;13.422;2023-09-19T03:57:37;16.50;99.90
5711;DHT22;61291;52.524;13.422;2023-09-19T04:00:03;16.50;99.90
5711;DHT22;61291;52.524;13.422;2023-09-19T04:02:37;16.50;99.90
5711;DHT22;61291;52.524;13.422;2023-09-19T04:05:03;16.50;99.90
5711;DHT22;61291;52.524;13.422;2023-09-19T04:07:28;16.50;99.90
5711;DHT22;61291;52.524;13.422;2023-09-19T04:09:54;16.50;99.90
5711;DHT22;61291;52.524;13.422;2023-09-19T04:12:20;16.40;99.90
5711;DHT22;61291;52.524;13.422;2023-09-19T04:14:46;16.50;99.90
5711;DHT22;61291;52.524;13.422;2023-09-19T04:17:11;16.40;99.90
5711;DHT22;61291;52.524;13.422;2023-09-19T04:19:37;16.50;99.90
5711;DHT22;61291;52.524;13.422;2023-09-19T04:22:02;16.50;99.90
5711;DHT22;61291;52.524;13.422;2023-09-19T04:24:29;16.40;99.90
5711;DHT22;61291;52.524;13.422;2023-09-19T04:26:54;16.40;99.90
5711;DHT22;61291;52.524;13.422;2023-09-19T04:29:20;16.30;99.90
5711;DHT22;61291;52.524;13.422;2023-09-19T04:31:45;16.20;99.90
5711;DHT22;61291;52.524;13.422;2023-09-19T04:34:11;16.20;99.90
5711;DHT22;61291;52.524;13.422;2023-09-19T04:36:41;16.10;99.90
5711;DHT22;61291;52.524;13.422;2023-09-19T04:39:07;16.10;99.90
5711;DHT22;61291;52.524;13.422;2023-09-19T04:41:33;16.00;99.90
5711;DHT22;61291;52.524;13.422;2023-09-19T04:43:59;16.00;99.90
5711;DHT22;61291;52.524;13.422;2023-09-19T04:46:25;16.00;99.90
5711;DHT22;61291;52.524;13.422;2023-09-19T04:48:50;16.00;99.90
5711;DHT22;61291;52.524;13.422;2023-09-19T04:51:15;16.00;99.90
5711;DHT22;61291;52.524;13.422;2023-09-19T04:53:41;16.00;99.90
5711;DHT22;61291;52.524;13.422;2023-09-19T04:56:07;16.10;99.90
5711;DHT22;61291;52.524;13.422;2023-09-19T04:58:33;16.10;99.90
5711;DHT22;61291;52.524;13.422;2023-09-19T05:00:59;16.10;99.90
5711;DHT22;61291;52.524;13.422;2023-09-19T05:03:24;16.10;99.90
5711;DHT22;61291;52.524;13.422;2023-09-19T05:05:50;16.20;99.90
5711;DHT22;61291;52.524;13.422;2023-09-19T05:08:15;16.20;99.90
5711;DHT22;61291;52.524;13.422;2023-09-19T05:10:41;16.20;99.90
5711;DHT22;61291;52.524;13.422;2023-09-19T05:13:06;16.10;99.90
5711;DHT22;61291;52.524;13.422;2023-09-19T05:15:35;16.10;99.90
5711;DHT22;61291;52.524;13.422;2023-09-19T05:18:01;16.10;99.90
5711;DHT22;61291;52.524;13.422;2023-09-19T05:20:26;16.10;99.90
5711;DHT22;61291;52.524;13.422;2023-09-19T05:23:02;16.10;99.90
5711;DHT22;61291;52.524;13.422;2023-09-19T05:25:32;16.10;99.90
5711;DHT22;61291;52.524;13.422;2023-09-19T05:28:01;16.10;99.90
5711;DHT22;61291;52.524;13.422;2023-09-19T05:30:29;16.10;99.90
5711;DHT22;61291;52.524;13.422;2023-09-19T05:32:55;16.10;99.90
5711;DHT22;61291;52.524;13.422;2023-09-19T05:35:21;16.10;99.90
5711;DHT22;61291;52.524;13.422;2023-09-19T05:37:48;16.10;99.90
5711;DHT22;61291;52.524;13.422;2023-09-19T05:40:16;16.10;99.90
5711;DHT22;61291;52.524;13.422;2023-09-19T05:42:42;16.20;99.90
5711;DHT22;61291;52.524;13.422;2023-09-19T05:45:09;16.20;99.90
5711;DHT22;61291;52.524;13.422;2023-09-19T05:47:38;16.30;99.90
5711;DHT22;61291;52.524;13.422;2023-09-19T05:50:06;16.30;99.90
5711;DHT22;61291;52.524;13.422;2023-09-19T05:52:33;16.40;99.90
5711;DHT22;61291;52.524;13.422;2023-09-19T05:54:58;16.50;99.90
5711;DHT22;61291;52.524;13.422;2023-09-19T05:57:24;16.50;99.90
5711;DHT22;61291;52.524;13.422;2023-09-19T05:59:50;16.60;99.90
5711;DHT22;61291;52.524;13.422;2023-09-19T06:02:16;16.60;99.90
5711;DHT22;61291;52.524;13.422;2023-09-19T06:04:41;16.70;99.90
5711;DHT22;61291;52.524;13.422;2023-09-19T06:07:07;17.00;99.90
5711;DHT22;61291;52.524;13.422;2023-09-19T06:09:32;17.10;99.90
5711;DHT22;61291;52.524;13.422;2023-09-19T06:11:59;17.30;99.90
5711;DHT22;61291;52.524;13.422;2023-09-19T06:14:28;17.30;99.90
5711;DHT22;61291;52.524;13.422;2023-09-19T06:16:54;17.40;99.90
5711;DHT22;61291;52.524;13.422;2023-09-19T06:19:20;17.80;99.90
5711;DHT22;61291;52.524;13.422;2023-09-19T06:21:48;18.20;99.90
5711;DHT22;61291;52.524;13.422;2023-09-19T06:24:14;18.60;99.90
5711;DHT22;61291;52.524;13.422;2023-09-19T06:26:40;18.80;99.90
5711;DHT22;61291;52.524;13.422;2023-09-19T06:29:05;18.70;99.90
5711;DHT22;61291;52.524;13.422;2023-09-19T06:31:33;18.80;99.90
5711;DHT22;61291;52.524;13.422;2023-09-19T06:33:58;19.10;99.90
5711;DHT22;61291;52.524;13.422;2023-09-19T06:36:24;19.60;99.90
5711;DHT22;61291;52.524;13.422;2023-09-19T06:38:49;20.00;99.90
5711;DHT22;61291;52.524;13.422;2023-09-19T06:41:17;20.40;99.90
5711;DHT22;61291;52.524;13.422;2023-09-19T06:43:43;20.80;99.90
5711;DHT22;61291;52.524;13.422;2023-09-19T06:46:09;21.30;99.90
5711;DHT22;61291;52.524;13.422;2023-09-19T06:48:35;21.60;99.90
5711;DHT22;61291;52.524;13.422;2023-09-19T06:51:00;21.90;99.90
5711;DHT22;61291;52.524;13.422;2023-09-19T06:53:28;22.10;99.90
5711;DHT22;61291;52.524;13.422;2023-09-19T06:55:57;22.30;99.90
5711;DHT22;61291;52.524;13.422;2023-09-19T06:58:22;22.50;99.90
5711;DHT22;61291;52.524;13.422;2023-09-19T07:00:48;22.70;99.90
5711;DHT22;61291;52.524;13.422;2023-09-19T07:03:15;23.10;99.90
5711;DHT22;61291;52.524;13.422;2023-09-19T07:05:44;23.90;99.90
5711;DHT22;61291;52.524;13.422;2023-09-19T07:08:10;24.50;99.90
5711;DHT22;61291;52.524;13.422;2023-09-19T07:10:38;24.90;98.50
5711;DHT22;61291;52.524;13.422;2023-09-19T07:13:07;25.50;96.60
5711;DHT22;61291;52.524;13.422;2023-09-19T07:15:38;25.60;94.60
5711;DHT22;61291;52.524;13.422;2023-09-19T07:18:07;25.60;93.80
5711;DHT22;61291;52.524;13.422;2023-09-19T07:20:36;25.10;92.20
5711;DHT22;61291;52.524;13.422;2023-09-19T07:23:02;25.10;92.60
5711;DHT22;61291;52.524;13.422;2023-09-19T07:25:28;25.40;92.30
5711;DHT22;61291;52.524;13.422;2023-09-19T07:27:58;25.70;91.80
5711;DHT22;61291;52.524;13.422;2023-09-19T07:30:26;25.70;90.80
5711;DHT22;61291;52.524;13.422;2023-09-19T07:32:53;25.60;90.30
5711;DHT22;61291;52.524;13.422;2023-09-19T07:35:19;25.50;89.90
5711;DHT22;61291;52.524;13.422;2023-09-19T07:37:46;25.00;88.70
5711;DHT22;61291;52.524;13.422;2023-09-19T07:40:15;24.60;89.00
5711;DHT22;61291;52.524;13.422;2023-09-19T07:42:41;24.70;89.10
5711;DHT22;61291;52.524;13.422;2023-09-19T07:45:07;24.60;88.90
5711;DHT22;61291;52.524;13.422;2023-09-19T07:47:33;24.50;87.90
5711;DHT22;61291;52.524;13.422;2023-09-19T07:49:59;24.20;88.30
5711;DHT22;61291;52.524;13.422;2023-09-19T07:52:27;24.00;88.10
5711;DHT22;61291;52.524;13.422;2023-09-19T07:54:53;23.80;88.30
5711;DHT22;61291;52.524;13.422;2023-09-19T07:57:19;23.60;87.80
5711;DHT22;61291;52.524;13.422;2023-09-19T07:59:45;23.70;88.00
5711;DHT22;61291;52.524;13.422;2023-09-19T08:02:11;23.60;87.40
5711;DHT22;61291;52.524;13.422;2023-09-19T08:04:42;23.50;85.90
5711;DHT22;61291;52.524;13.422;2023-09-19T08:07:08;23.80;86.00
5711;DHT22;61291;52.524;13.422;2023-09-19T08:09:36;24.00;85.30
5711;DHT22;61291;52.524;13.422;2023-09-19T08:12:04;24.20;85.00
5711;DHT22;61291;52.524;13.422;2023-09-19T08:14:30;24.10;84.60
5711;DHT22;61291;52.524;13.422;2023-09-19T08:16:58;23.90;84.50
5711;DHT22;61291;52.524;13.422;2023-09-19T08:19:24;23.80;83.80
5711;DHT22;61291;52.524;13.422;2023-09-19T08:21:57;23.80;84.20
5711;DHT22;61291;52.524;13.422;2023-09-19T08:24:30;23.80;84.40
5711;DHT22;61291;52.524;13.422;2023-09-19T08:26:56;23.70;84.30
5711;DHT22;61291;52.524;13.422;2023-09-19T08:29:23;23.60;84.20
5711;DHT22;61291;52.524;13.422;2023-09-19T08:31:59;23.40;83.40
5711;DHT22;61291;52.524;13.422;2023-09-19T08:34:25;23.10;83.30
5711;DHT22;61291;52.524;13.422;2023-09-19T08:36:54;22.90;83.60
5711;DHT22;61291;52.524;13.422;2023-09-19T08:39:23;22.70;84.20
5711;DHT22;61291;52.524;13.422;2023-09-19T08:41:49;22.50;84.40
5711;DHT22;61291;52.524;13.422;2023-09-19T08:44:15;22.50;84.80
5711;DHT22;61291;52.524;13.422;2023-09-19T08:46:41;22.20;84.70
5711;DHT22;61291;52.524;13.422;2023-09-19T08:49:15;21.90;85.20
5711;DHT22;61291;52.524;13.422;2023-09-19T08:51:45;21.60;85.50
5711;DHT22;61291;52.524;13.422;2023-09-19T08:54:22;21.50;86.00
5711;DHT22;61291;52.524;13.422;2023-09-19T08:56:54;21.20;86.10
5711;DHT22;61291;52.524;13.422;2023-09-19T08:59:22;21.00;86.60
5711;DHT22;61291;52.524;13.422;2023-09-19T09:01:53;21.00;86.60
5711;DHT22;61291;52.524;13.422;2023-09-19T09:04:20;21.00;86.90
5711;DHT22;61291;52.524;13.422;2023-09-19T09:06:46;20.80;86.70
5711;DHT22;61291;52.524;13.422;2023-09-19T09:09:14;20.70;87.00
5711;DHT22;61291;52.524;13.422;2023-09-19T09:11:40;20.60;87.30
5711;DHT22;61291;52.524;13.422;2023-09-19T09:14:06;20.70;87.00
5711;DHT22;61291;52.524;13.422;2023-09-19T09:16:32;20.90;86.90
5711;DHT22;61291;52.524;13.422;2023-09-19T09:18:58;21.00;87.00
5711;DHT22;61291;52.524;13.422;2023-09-19T09:21:25;21.20;86.90
5711;DHT22;61291;52.524;13.422;2023-09-19T09:23:51;21.40;86.60
5711;DHT22;61291;52.524;13.422;2023-09-19T09:26:17;21.30;85.90
5711;DHT22;61291;52.524;13.422;2023-09-19T09:28:49;21.10;85.60
5711;DHT22;61291;52.524;13.422;2023-09-19T09:31:24;21.30;85.80
5711;DHT22;61291;52.524;13.422;2023-09-19T09:33:54;21.40;85.30
5711;DHT22;61291;52.524;13.422;2023-09-19T09:36:36;21.60;85.30
5711;DHT22;61291;52.524;13.422;2023-09-19T09:39:02;21.90;84.90
5711;DHT22;61291;52.524;13.422;2023-09-19T09:41:44;22.30;84.30
5711;DHT22;61291;52.524;13.422;2023-09-19T09:44:15;22.40;83.50
5711;DHT22;61291;52.524;13.422;2023-09-19T09:46:45;22.30;82.50
5711;DHT22;61291;52.524;13.422;2023-09-19T09:49:24;22.10;81.90
5711;DHT22;61291;52.524;13.422;2023-09-19T09:54:28;21.90;81.80
5711;DHT22;61291;52.524;13.422;2023-09-19T09:57:08;22.10;81.30
5711;DHT22;61291;52.524;13.422;2023-09-19T10:02:12;22.70;80.40
5711;DHT22;61291;52.524;13.422;2023-09-19T10:04:39;22.70;78.90
5711;DHT22;61291;52.524;13.422;2023-09-19T10:07:30;23.00;78.80
5711;DHT22;61291;52.524;13.422;2023-09-19T10:10:04;23.70;78.50
5711;DHT22;61291;52.524;13.422;2023-09-19T10:12:38;24.40;77.50
5711;DHT22;61291;52.524;13.422;2023-09-19T10:15:08;24.90;76.10
5711;DHT22;61291;52.524;13.422;2023-09-19T10:17:36;24.90;74.80
5711;DHT22;61291;52.524;13.422;2023-09-19T10:20:02;24.70;73.90
5711;DHT22;61291;52.524;13.422;2023-09-19T10:22:39;24.50;72.80
5711;DHT22;61291;52.524;13.422;2023-09-19T10:25:08;24.40;72.70
5711;DHT22;61291;52.524;13.422;2023-09-19T10:27:34;24.20;71.90
5711;DHT22;61291;52.524;13.422;2023-09-19T10:30:05;23.70;70.70
5711;DHT22;61291;52.524;13.422;2023-09-19T10:32:35;23.60;71.20
5711;DHT22;61291;52.524;13.422;2023-09-19T10:35:01;23.70;71.40
5711;DHT22;61291;52.524;13.422;2023-09-19T10:37:27;23.60;71.00
5711;DHT22;61291;52.524;13.422;2023-09-19T10:39:56;23.50;71.40
5711;DHT22;61291;52.524;13.422;2023-09-19T10:42:23;23.60;71.70
5711;DHT22;61291;52.524;13.422;2023-09-19T10:44:53;23.70;71.90
5711;DHT22;61291;52.524;13.422;2023-09-19T10:47:19;23.50;71.20
5711;DHT22;61291;52.524;13.422;2023-09-19T10:49:46;23.50;70.90
5711;DHT22;61291;52.524;13.422;2023-09-19T10:52:14;23.40;70.70
5711;DHT22;61291;52.524;13.422;2023-09-19T10:54:47;23.50;70.00
5711;DHT22;61291;52.524;13.422;2023-09-19T10:57:23;23.80;69.00
5711;DHT22;61291;52.524;13.422;2023-09-19T11:00:06;24.30;68.20
5711;DHT22;61291;52.524;13.422;2023-09-19T11:03:20;24.50;67.50
5711;DHT22;61291;52.524;13.422;2023-09-19T11:06:17;24.60;65.60
5711;DHT22;61291;52.524;13.422;2023-09-19T11:30:41;24.30;66.20
5711;DHT22;61291;52.524;13.422;2023-09-19T11:43:52;24.40;64.90
5711;DHT22;61291;52.524;13.422;2023-09-19T11:46:20;24.60;65.20
5711;DHT22;61291;52.524;13.422;2023-09-19T11:48:50;24.80;65.20
5711;DHT22;61291;52.524;13.422;2023-09-19T11:51:24;25.00;64.90
5711;DHT22;61291;52.524;13.422;2023-09-19T11:53:53;24.90;64.40
5711;DHT22;61291;52.524;13.422;2023-09-19T11:56:21;24.80;63.70
5711;DHT22;61291;52.524;13.422;2023-09-19T11:58:53;24.80;63.00
5711;DHT22;61291;52.524;13.422;2023-09-19T12:01:30;24.80;63.40
5711;DHT22;61291;52.524;13.422;2023-09-19T12:03:57;24.90;63.40
5711;DHT22;61291;52.524;13.422;2023-09-19T12:06:24;25.00;63.30
5711;DHT22;61291;52.524;13.422;2023-09-19T12:08:49;25.10;63.10
5711;DHT22;61291;52.524;13.422;2023-09-19T12:11:16;25.30;62.80
5711;DHT22;61291;52.524;13.422;2023-09-19T12:13:46;25.60;62.50
5711;DHT22;61291;52.524;13.422;2023-09-19T12:16:15;25.60;61.50
5711;DHT22;61291;52.524;13.422;2023-09-19T12:18:41;25.60;61.60
5711;DHT22;61291;52.524;13.422;2023-09-19T12:21:24;25.80;61.40
5711;DHT22;61291;52.524;13.422;2023-09-19T12:24:06;25.90;60.70
5711;DHT22;61291;52.524;13.422;2023-09-19T12:26:43;26.10;60.00
5711;DHT22;61291;52.524;13.422;2023-09-19T12:29:20;26.20;60.10
5711;DHT22;61291;52.524;13.422;2023-09-19T12:31:56;26.30;59.40
5711;DHT22;61291;52.524;13.422;2023-09-19T12:34:30;26.20;59.20
5711;DHT22;61291;52.524;13.422;2023-09-19T12:37:15;26.30;59.30
5711;DHT22;61291;52.524;13.422;2023-09-19T12:39:46;26.40;58.90
5711;DHT22;61291;52.524;13.422;2023-09-19T12:42:15;26.30;58.70
5711;DHT22;61291;52.524;13.422;2023-09-19T12:44:42;26.30;58.30
5711;DHT22;61291;52.524;13.422;2023-09-19T12:47:10;26.30;58.00
5711;DHT22;61291;52.524;13.422;2023-09-19T12:49:36;26.20;58.00
5711;DHT22;61291;52.524;13.422;2023-09-19T12:52:02;26.20;58.00
5711;DHT22;61291;52.524;13.422;2023-09-19T12:54:40;26.30;57.80
5711;DHT22;61291;52.524;13.422;2023-09-19T12:57:06;26.40;57.50
5711;DHT22;61291;52.524;13.422;2023-09-19T12:59:32;26.40;57.80
5711;DHT22;61291;52.524;13.422;2023-09-19T13:02:04;26.40;57.40
5711;DHT22;61291;52.524;13.422;2023-09-19T13:04:32;26.10;57.40
5711;DHT22;61291;52.524;13.422;2023-09-19T13:06:59;26.10;57.90
5711;DHT22;61291;52.524;13.422;2023-09-19T13:09:27;26.10;58.30
5711;DHT22;61291;52.524;13.422;2023-09-19T13:15:08;26.10;57.70
5711;DHT22;61291;52.524;13.422;2023-09-19T13:17:45;26.20;57.90
5711;DHT22;61291;52.524;13.422;2023-09-19T13:20:26;26.10;58.00
5711;DHT22;61291;52.524;13.422;2023-09-19T13:22:53;26.00;58.00
5711;DHT22;61291;52.524;13.422;2023-09-19T13:25:21;26.10;58.20
5711;DHT22;61291;52.524;13.422;2023-09-19T13:27:49;26.10;58.20
5711;DHT22;61291;52.524;13.422;2023-09-19T13:30:20;26.10;58.20
5711;DHT22;61291;52.524;13.422;2023-09-19T13:32:46;26.10;58.00
5711;DHT22;61291;52.524;13.422;2023-09-19T13:35:16;26.10;58.00
5711;DHT22;61291;52.524;13.422;2023-09-19T13:37:42;26.00;57.90
5711;DHT22;61291;52.524;13.422;2023-09-19T13:40:13;25.70;57.50
5711;DHT22;61291;52.524;13.422;2023-09-19T13:42:39;25.50;57.60
5711;DHT22;61291;52.524;13.422;2023-09-19T13:45:05;25.40;57.80
5711;DHT22;61291;52.524;13.422;2023-09-19T13:47:32;25.40;58.00
5711;DHT22;61291;52.524;13.422;2023-09-19T13:49:58;25.30;58.00
5711;DHT22;61291;52.524;13.422;2023-09-19T13:52:24;25.30;58.10
5711;DHT22;61291;52.524;13.422;2023-09-19T13:54:53;25.40;58.30
5711;DHT22;61291;52.524;13.422;2023-09-19T13:57:18;25.40;58.20
5711;DHT22;61291;52.524;13.422;2023-09-19T13:59:44;25.40;58.40
5711;DHT22;61291;52.524;13.422;2023-09-19T14:02:10;25.30;58.50
5711;DHT22;61291;52.524;13.422;2023-09-19T14:04:35;25.40;58.60
5711;DHT22;61291;52.524;13.422;2023-09-19T14:07:01;25.50;58.50
5711;DHT22;61291;52.524;13.422;2023-09-19T14:09:27;25.50;58.10
5711;DHT22;61291;52.524;13.422;2023-09-19T14:11:52;25.40;58.10
5711;DHT22;61291;52.524;13.422;2023-09-19T14:14:21;25.40;58.00
5711;DHT22;61291;52.524;13.422;2023-09-19T14:16:47;25.40;58.00
5711;DHT22;61291;52.524;13.422;2023-09-19T14:19:13;25.50;58.10
5711;DHT22;61291;52.524;13.422;2023-09-19T14:21:42;25.40;58.10
5711;DHT22;61291;52.524;13.422;2023-09-19T14:24:08;25.50;58.20
5711;DHT22;61291;52.524;13.422;2023-09-19T14:26:35;25.50;58.20
5711;DHT22;61291;52.524;13.422;2023-09-19T14:29:01;25.40;58.20
5711;DHT22;61291;52.524;13.422;2023-09-19T14:31:26;25.10;58.20
5711;DHT22;61291;52.524;13.422;2023-09-19T14:33:54;25.00;58.50
5711;DHT22;61291;52.524;13.422;2023-09-19T14:36:20;25.00;58.40
5711;DHT22;61291;52.524;13.422;2023-09-19T14:38:47;24.90;58.70
5711;DHT22;61291;52.524;13.422;2023-09-19T14:41:12;24.80;58.70
5711;DHT22;61291;52.524;13.422;2023-09-19T14:43:38;24.60;58.70
5711;DHT22;61291;52.524;13.422;2023-09-19T14:46:05;24.50;59.00
5711;DHT22;61291;52.524;13.422;2023-09-19T14:48:33;24.30;59.10
5711;DHT22;61291;52.524;13.422;2023-09-19T14:51:06;24.30;59.30
5711;DHT22;61291;52.524;13.422;2023-09-19T14:53:34;24.20;59.50
5711;DHT22;61291;52.524;13.422;2023-09-19T14:56:01;24.00;59.60
5711;DHT22;61291;52.524;13.422;2023-09-19T14:58:28;23.90;59.80
5711;DHT22;61291;52.524;13.422;2023-09-19T15:01:04;23.80;60.10
5711;DHT22;61291;52.524;13.422;2023-09-19T15:03:31;23.80;60.50
5711;DHT22;61291;52.524;13.422;2023-09-19T15:06:01;23.70;60.40
5711;DHT22;61291;52.524;13.422;2023-09-19T15:08:27;23.70;60.60
5711;DHT22;61291;52.524;13.422;2023-09-19T15:10:52;23.60;60.50
5711;DHT22;61291;52.524;13.422;2023-09-19T15:13:19;23.40;60.40
5711;DHT22;61291;52.524;13.422;2023-09-19T15:15:45;23.30;60.60
5711;DHT22;61291;52.524;13.422;2023-09-19T15:18:13;23.20;60.80
5711;DHT22;61291;52.524;13.422;2023-09-19T15:20:45;23.00;60.90
5711;DHT22;61291;52.524;13.422;2023-09-19T15:23:12;22.90;61.00
5711;DHT22;61291;52.524;13.422;2023-09-19T15:25:38;22.80;61.00
5711;DHT22;61291;52.524;13.422;2023-09-19T15:28:05;22.70;61.20
5711;DHT22;61291;52.524;13.422;2023-09-19T15:30:39;22.60;61.30
5711;DHT22;61291;52.524;13.422;2023-09-19T15:33:04;22.50;61.60
5711;DHT22;61291;52.524;13.422;2023-09-19T15:35:30;22.30;61.80
5711;DHT22;61291;52.524;13.422;2023-09-19T15:37:55;22.20;62.20
5711;DHT22;61291;52.524;13.422;2023-09-19T15:40:22;22.10;62.40
5711;DHT22;61291;52.524;13.422;2023-09-19T15:42:49;21.90;62.50
5711;DHT22;61291;52.524;13.422;2023-09-19T15:45:15;21.80;62.80
5711;DHT22;61291;52.524;13.422;2023-09-19T15:47:41;21.70;63.10
5711;DHT22;61291;52.524;13.422;2023-09-19T15:50:08;21.50;63.40
5711;DHT22;61291;52.524;13.422;2023-09-19T15:52:39;21.40;63.60
5711;DHT22;61291;52.524;13.422;2023-09-19T15:55:05;21.30;63.90
5711;DHT22;61291;52.524;13.422;2023-09-19T15:57:37;21.20;64.60
5711;DHT22;61291;52.524;13.422;2023-09-19T16:00:04;21.20;64.70
5711;DHT22;61291;52.524;13.422;2023-09-19T16:02:36;21.10;64.90
5711;DHT22;61291;52.524;13.422;2023-09-19T16:05:02;21.00;65.10
5711;DHT22;61291;52.524;13.422;2023-09-19T16:07:31;20.90;65.40
5711;DHT22;61291;52.524;13.422;2023-09-19T16:09:56;20.80;65.70
5711;DHT22;61291;52.524;13.422;2023-09-19T16:12:22;20.70;66.10
5711;DHT22;61291;52.524;13.422;2023-09-19T16:14:48;20.60;66.20
5711;DHT22;61291;52.524;13.422;2023-09-19T16:17:14;20.50;66.50
5711;DHT22;61291;52.524;13.422;2023-09-19T16:19:40;20.40;66.70
5711;DHT22;61291;52.524;13.422;2023-09-19T16:22:06;20.40;66.90
5711;DHT22;61291;52.524;13.422;2023-09-19T16:24:33;20.20;67.20
5711;DHT22;61291;52.524;13.422;2023-09-19T16:26:59;20.00;67.30
5711;DHT22;61291;52.524;13.422;2023-09-19T16:29:24;19.90;67.80